sensor_id;sensor_type;location;lat;lon;timestamp;pressure;altitude;pressure_sealevel;temperature;humidity
22487;BME280;11410;53.046;10.512;2022-11-20T16:14:10;100207.03;;;1.27;100.00
22487;BME280;11410;53.046;10.512;2022-11-20T16:18:30;100216.47;;;1.24;100.00
22487;BME280;11410;53.046;10.512;2022-11-20T16:22:32;100214.81;;;1.23;100.00
22487;BME280;11410;53.046;10.512;2022-11-20T16:26:34;100211.47;;;1.22;100.00
22487;BME280;11410;53.046;10.512;2022-11-20T16:30:35;100203.94;;;1.21;100.00
22487;BME280;11410;53.046;10.512;2022-11-20T16:34:37;100204.84;;;1.20;100.00
22487;BME280;11410;53.046;10.512;2022-11-20T16:38:38;100201.53;;;1.18;100.00
22487;BME280;11410;53.046;10.512;2022-11-20T16:42:40;100198.41;;;1.13;100.00
22487;BME280;11410;53.046;10.512;2022-11-20T16:46:41;100192.44;;;1.14;100.00
22487;BME280;11410;53.046;10.512;2022-11-20T16:50:44;100193.47;;;1.10;100.00
22487;BME280;11410;53.046;10.512;2022-11-20T16:54:45;100185.13;;;1.08;100.00
22487;BME280;11410;53.046;10.512;2022-11-20T16:58:48;100179.38;;;1.04;100.00
22487;BME280;11410;53.046;10.512;2022-11-20T17:02:49;100179.56;;;1.00;100.00
22487;BME280;11410;53.046;10.512;2022-11-20T17:06:51;100177.19;;;0.96;100.00
22487;BME280;11410;53.046;10.512;2022-11-20T17:10:52;100174.84;;;0.92;100.00
22487;BME280;11410;53.046;10.512;2022-11-20T17:14:53;100175.13;;;0.86;100.00
22487;BME280;11410;53.046;10.512;2022-11-20T17:18:55;100167.72;;;0.81;100.00
22487;BME280;11410;53.046;10.512;2022-11-20T17:23:02;100174.06;;;0.71;89.51
22487;BME280;11410;53.046;10.512;2022-11-20T17:27:04;100169.41;;;0.62;0.00
22487;BME280;11410;53.046;10.512;2022-11-20T17:31:09;100178.88;;;0.57;100.00
22487;BME280;11410;53.046;10.512;2022-11-20T17:35:11;61623.09;;;-141.60;100.00
22487;BME280;11410;53.046;10.512;2022-11-20T17:39:12;100178.88;;;0.57;100.00
22487;BME280;11410;53.046;10.512;2022-11-20T17:43:14;100161.44;;;0.30;100.00
22487;BME280;11410;53.046;10.512;2022-11-20T17:47:15;100145.25;;;0.19;91.75
22487;BME280;11410;53.046;10.512;2022-11-20T17:51:18;100148.06;;;0.08;100.00
22487;BME280;11410;53.046;10.512;2022-11-20T17:55:19;61623.09;;;-141.60;100.00
22487;BME280;11410;53.046;10.512;2022-11-20T17:59:20;61623.09;;;-141.60;100.00
22487;BME280;11410;53.046;10.512;2022-11-20T18:03:23;61623.09;;;-141.60;100.00
22487;BME280;11410;53.046;10.512;2022-11-20T18:07:24;61623.09;;;-141.60;100.00
22487;BME280;11410;53.046;10.512;2022-11-20T18:11:27;61623.09;;;-141.60;100.00
22487;BME280;11410;53.046;10.512;2022-11-20T18:19:35;100143.22;;;-0.40;0.00
22487;BME280;11410;53.046;10.512;2022-11-20T18:23:44;100141.00;;;-0.48;100.00
22487;BME280;11410;53.046;10.512;2022-11-20T18:27:46;100148.97;;;-0.51;100.00
22487;BME280;11410;53.046;10.512;2022-11-20T18:31:47;100136.41;;;-0.60;100.00
22487;BME280;11410;53.046;10.512;2022-11-20T18:35:48;100132.47;;;-0.67;98.05
22487;BME280;11410;53.046;10.512;2022-11-20T18:39:50;100145.44;;;-0.76;100.00
22487;BME280;11410;53.046;10.512;2022-11-20T18:43:51;100129.09;;;-0.85;0.00
22487;BME280;11410;53.046;10.512;2022-11-20T18:48:11;-18216.03;;;-0.91;100.00
22487;BME280;11410;53.046;10.512;2022-11-20T18:52:12;100141.06;;;-0.94;100.00
22487;BME280;11410;53.046;10.512;2022-11-20T18:56:14;100141.31;;;-1.01;0.00
22487;BME280;11410;53.046;10.512;2022-11-20T19:00:15;61623.09;;;-1.02;100.00
22487;BME280;11410;53.046;10.512;2022-11-20T19:04:17;145611.38;;;-1.00;100.00
22487;BME280;11410;53.046;10.512;2022-11-20T19:08:32;61623.09;;;-0.94;100.00
22487;BME280;11410;53.046;10.512;2022-11-20T19:17:43;30319.22;;;-0.83;100.00
22487;BME280;11410;53.046;10.512;2022-11-20T19:21:45;79134.63;;;-0.79;100.00
22487;BME280;11410;53.046;10.512;2022-11-20T19:25:46;100095.59;;;-0.71;100.00
22487;BME280;11410;53.046;10.512;2022-11-20T19:29:47;100098.72;;;-0.65;100.00
22487;BME280;11410;53.046;10.512;2022-11-20T19:33:53;100099.31;;;-0.58;100.00
22487;BME280;11410;53.046;10.512;2022-11-20T19:37:55;100099.06;;;-0.52;100.00
22487;BME280;11410;53.046;10.512;2022-11-20T19:41:59;100097.19;;;-0.47;100.00
22487;BME280;11410;53.046;10.512;2022-11-20T19:46:00;100090.25;;;-0.42;100.00
22487;BME280;11410;53.046;10.512;2022-11-20T19:50:02;100082.59;;;-0.40;100.00
22487;BME280;11410;53.046;10.512;2022-11-20T19:54:04;100084.19;;;-0.38;100.00
22487;BME280;11410;53.046;10.512;2022-11-20T19:58:05;100075.72;;;-0.37;100.00
22487;BME280;11410;53.046;10.512;2022-11-20T20:02:08;61623.09;;;-141.60;100.00
22487;BME280;11410;53.046;10.512;2022-11-20T20:06:11;61623.09;;;-141.60;100.00
22487;BME280;11410;53.046;10.512;2022-11-20T20:10:14;61623.09;;;-141.60;100.00
22487;BME280;11410;53.046;10.512;2022-11-20T20:14:17;61623.09;;;-141.60;100.00
22487;BME280;11410;53.046;10.512;2022-11-20T20:18:19;61623.09;;;-141.60;100.00
22487;BME280;11410;53.046;10.512;2022-11-20T20:22:20;61623.09;;;-141.60;100.00
22487;BME280;11410;53.046;10.512;2022-11-20T20:26:22;61623.09;;;-141.60;100.00
22487;BME280;11410;53.046;10.512;2022-11-20T20:30:24;61623.09;;;-141.60;100.00
22487;BME280;11410;53.046;10.512;2022-11-20T20:34:25;61623.09;;;-141.60;100.00
22487;BME280;11410;53.046;10.512;2022-11-20T20:38:29;61623.09;;;-141.60;100.00
22487;BME280;11410;53.046;10.512;2022-11-20T20:42:31;61623.09;;;-141.60;100.00
22487;BME280;11410;53.046;10.512;2022-11-20T20:51:30;61623.09;;;-141.60;100.00
22487;BME280;11410;53.046;10.512;2022-11-20T20:55:31;61623.09;;;-141.60;100.00
22487;BME280;11410;53.046;10.512;2022-11-20T20:59:50;61623.09;;;-141.60;100.00
22487;BME280;11410;53.046;10.512;2022-11-20T21:03:55;61623.09;;;-141.60;100.00
22487;BME280;11410;53.046;10.512;2022-11-20T21:07:57;61623.09;;;-141.60;100.00
22487;BME280;11410;53.046;10.512;2022-11-20T21:12:17;61623.09;;;-141.60;100.00
22487;BME280;11410;53.046;10.512;2022-11-20T21:16:18;61623.09;;;-141.60;100.00
22487;BME280;11410;53.046;10.512;2022-11-20T21:20:21;61623.09;;;-141.60;100.00
22487;BME280;11410;53.046;10.512;2022-11-20T21:25:05;61623.09;;;-141.60;100.00
22487;BME280;11410;53.046;10.512;2022-11-20T21:29:07;61623.09;;;-141.60;100.00
22487;BME280;11410;53.046;10.512;2022-11-20T21:33:08;61623.09;;;-141.60;100.00
22487;BME280;11410;53.046;10.512;2022-11-20T21:37:09;61623.09;;;-141.60;100.00
22487;BME280;11410;53.046;10.512;2022-11-20T21:41:11;61623.09;;;-141.60;100.00
22487;BME280;11410;53.046;10.512;2022-11-20T21:45:13;61623.09;;;-141.60;100.00
22487;BME280;11410;53.046;10.512;2022-11-20T21:49:14;61623.09;;;-141.60;100.00
22487;BME280;11410;53.046;10.512;2022-11-20T21:53:17;61623.09;;;-141.60;100.00
22487;BME280;11410;53.046;10.512;2022-11-20T21:57:19;61623.09;;;-141.60;100.00
22487;BME280;11410;53.046;10.512;2022-11-20T22:01:24;61623.09;;;-141.60;100.00
22487;BME280;11410;53.046;10.512;2022-11-20T22:05:25;61623.09;;;-141.60;100.00
22487;BME280;11410;53.046;10.512;2022-11-20T22:09:27;61623.09;;;-141.60;100.00
22487;BME280;11410;53.046;10.512;2022-11-20T22:13:28;61623.09;;;-141.60;100.00
22487;BME280;11410;53.046;10.512;2022-11-20T22:17:48;61623.09;;;-141.60;100.00
22487;BME280;11410;53.046;10.512;2022-11-20T22:22:08;61623.09;;;-141.60;100.00
22487;BME280;11410;53.046;10.512;2022-11-20T22:26:10;61623.09;;;-141.60;100.00
22487;BME280;11410;53.046;10.512;2022-11-20T22:30:12;61623.09;;;-141.60;100.00
22487;BME280;11410;53.046;10.512;2022-11-20T22:34:13;61623.09;;;-141.60;100.00
22487;BME280;11410;53.046;10.512;2022-11-20T22:38:15;61623.09;;;-141.60;100.00
22487;BME280;11410;53.046;10.512;2022-11-20T22:42:16;61623.09;;;-141.60;100.00
22487;BME280;11410;53.046;10.512;2022-11-20T22:46:17;61623.09;;;-141.60;100.00
22487;BME280;11410;53.046;10.512;2022-11-20T22:50:19;61623.09;;;-141.60;100.00
22487;BME280;11410;53.046;10.512;2022-11-20T22:54:20;61623.09;;;-141.60;100.00
22487;BME280;11410;53.046;10.512;2022-11-20T22:58:22;61623.09;;;-141.60;100.00
22487;BME280;11410;53.046;10.512;2022-11-20T23:02:23;61623.09;;;-141.60;100.00
22487;BME280;11410;53.046;10.512;2022-11-20T23:06:24;61623.09;;;-141.60;100.00
22487;BME280;11410;53.046;10.512;2022-11-20T23:10:26;61623.09;;;-141.60;100.00
22487;BME280;11410;53.046;10.512;2022-11-20T23:14:27;61623.09;;;-141.60;100.00
22487;BME280;11410;53.046;10.512;2022-11-20T23:18:29;61623.09;;;-141.60;100.00
22487;BME280;11410;53.046;10.512;2022-11-20T23:22:31;61623.09;;;-141.60;100.00
22487;BME280;11410;53.046;10.512;2022-11-20T23:26:33;61623.09;;;-141.60;100.00
22487;BME280;11410;53.046;10.512;2022-11-20T23:30:35;61623.09;;;-141.60;100.00
22487;BME280;11410;53.046;10.512;2022-11-20T23:34:36;61623.09;;;-141.60;100.00
22487;BME280;11410;53.046;10.512;2022-11-20T23:38:38;61623.09;;;-141.60;100.00
22487;BME280;11410;53.046;10.512;2022-11-20T23:42:39;61623.09;;;-141.60;100.00
22487;BME280;11410;53.046;10.512;2022-11-20T23:47:01;61623.09;;;-141.60;100.00
22487;BME280;11410;53.046;10.512;2022-11-20T23:51:02;61623.09;;;-141.60;100.00
22487;BME280;11410;53.046;10.512;2022-11-20T23:55:07;61623.09;;;-141.60;100.00
22487;BME280;11410;53.046;10.512;2022-11-20T23:59:08;61623.09;;;-141.60;100.00
